DataTemp.
Ø
Temp.
Max
Temp.
Min
UmiditàPressionePioggiaVento
Ø
Vento
dir. Ø
Vento
Max
Rad. solare
Ø
Rad. solare
Max
Indice UV
Max
25.11.2022 00:000.8°C0.9°C0.8°C87.6%1019.3hPa0.0mm1.4km/hSSW4.7km/h0.0W/m²0W/m²0uvi
25.11.2022 00:050.8°C0.8°C0.7°C88.0%1019.2hPa0.0mm1.4km/hSSW3.2km/h0.0W/m²0W/m²0uvi
25.11.2022 00:100.8°C0.8°C0.7°C88.0%1019.2hPa0.0mm1.4km/hSSW3.2km/h0.0W/m²0W/m²0uvi
25.11.2022 00:150.7°C0.8°C0.7°C88.0%1019.2hPa0.0mm1.4km/hSSW4.7km/h0.0W/m²0W/m²0uvi
25.11.2022 00:200.8°C0.9°C0.7°C88.0%1019.3hPa0.0mm1.4km/hSW4.7km/h0.0W/m²0W/m²0uvi
25.11.2022 00:250.9°C0.9°C0.8°C88.0%1019.4hPa0.0mm2.3km/hWSW4.7km/h0.0W/m²0W/m²0uvi
25.11.2022 00:300.9°C1.0°C0.9°C87.9%1019.5hPa0.0mm2.2km/hW4.7km/h0.0W/m²0W/m²0uvi
25.11.2022 00:350.8°C0.9°C0.8°C88.0%1019.5hPa0.0mm2.9km/hW3.2km/h0.0W/m²0W/m²0uvi
25.11.2022 00:400.9°C0.9°C0.8°C88.0%1019.4hPa0.0mm1.4km/hW4.7km/h0.0W/m²0W/m²0uvi
25.11.2022 00:450.9°C1.0°C0.9°C88.0%1019.3hPa0.0mm2.1km/hSSW6.5km/h0.0W/m²0W/m²0uvi
25.11.2022 00:500.9°C0.9°C0.9°C88.0%1019.4hPa0.0mm3.2km/hWSW3.2km/h0.0W/m²0W/m²0uvi
25.11.2022 00:550.9°C0.9°C0.8°C88.0%1019.3hPa0.0mm2.1km/hSSW4.7km/h0.0W/m²0W/m²0uvi
25.11.2022 01:000.8°C0.8°C0.8°C88.0%1019.3hPa0.0mm1.8km/hSSW4.7km/h0.0W/m²0W/m²0uvi
25.11.2022 01:050.8°C0.9°C0.8°C88.1%1019.4hPa0.0mm2.9km/hW3.2km/h0.0W/m²0W/m²0uvi
25.11.2022 01:101.0°C1.1°C0.9°C89.0%1019.4hPa0.0mm1.4km/hW3.2km/h0.0W/m²0W/m²0uvi
25.11.2022 01:151.1°C1.2°C1.1°C88.6%1019.3hPa0.0mm0.4km/hW4.7km/h0.0W/m²0W/m²0uvi
25.11.2022 01:201.2°C1.3°C1.2°C88.0%1019.2hPa0.0mm1.4km/hW4.7km/h0.0W/m²0W/m²0uvi
25.11.2022 01:251.3°C1.3°C1.2°C88.0%1019.3hPa0.0mm3.2km/hW4.7km/h0.0W/m²0W/m²0uvi
25.11.2022 01:301.3°C1.4°C1.3°C88.0%1019.3hPa0.0mm2.5km/hW3.2km/h0.0W/m²0W/m²0uvi
25.11.2022 01:351.3°C1.3°C1.3°C88.0%1019.3hPa0.0mm1.4km/hSSW4.7km/h0.0W/m²0W/m²0uvi
25.11.2022 01:401.2°C1.3°C1.2°C88.0%1019.2hPa0.0mm2.1km/hSSW4.7km/h0.0W/m²0W/m²0uvi
25.11.2022 01:451.2°C1.2°C1.2°C88.0%1019.2hPa0.0mm2.9km/hWSW3.2km/h0.0W/m²0W/m²0uvi
25.11.2022 01:501.2°C1.2°C1.1°C88.0%1019.2hPa0.0mm1.4km/hSW3.2km/h0.0W/m²0W/m²0uvi
25.11.2022 01:551.1°C1.2°C1.1°C88.0%1019.4hPa0.0mm1.4km/hSSW3.2km/h0.0W/m²0W/m²0uvi
25.11.2022 02:001.1°C1.2°C1.1°C88.0%1019.4hPa0.0mm1.4km/hS4.7km/h0.0W/m²0W/m²0uvi
25.11.2022 02:051.1°C1.2°C1.1°C88.0%1019.3hPa0.0mm2.4km/hSSW4.7km/h0.0W/m²0W/m²0uvi
25.11.2022 02:101.1°C1.1°C1.1°C88.2%1019.3hPa0.0mm2.9km/hSSW3.2km/h0.0W/m²0W/m²0uvi
25.11.2022 02:151.1°C1.1°C1.1°C88.7%1019.4hPa0.0mm1.4km/hSSW3.2km/h0.0W/m²0W/m²0uvi
25.11.2022 02:201.1°C1.2°C1.1°C88.8%1019.4hPa0.0mm1.4km/hSSW3.2km/h0.0W/m²0W/m²0uvi
25.11.2022 02:251.2°C1.2°C1.1°C89.0%1019.4hPa0.0mm0.8km/hSSW3.2km/h0.0W/m²0W/m²0uvi
25.11.2022 02:301.3°C1.3°C1.2°C89.0%1019.6hPa0.0mm1.4km/hSSW1.4km/h0.0W/m²0W/m²0uvi
25.11.2022 02:351.3°C1.3°C1.3°C89.0%1019.5hPa0.0mm1.4km/hSSW3.2km/h0.0W/m²0W/m²0uvi
25.11.2022 02:401.3°C1.3°C1.3°C88.0%1019.6hPa0.0mm1.4km/hSSW4.7km/h0.0W/m²0W/m²0uvi
25.11.2022 02:451.2°C1.3°C1.2°C88.0%1019.6hPa0.0mm2.5km/hSSW4.7km/h0.0W/m²0W/m²0uvi
25.11.2022 02:501.1°C1.2°C1.1°C88.0%1019.7hPa0.0mm3.2km/hSW4.7km/h0.0W/m²0W/m²0uvi
25.11.2022 02:551.1°C1.1°C1.0°C88.6%1019.7hPa0.0mm1.8km/hWSW4.7km/h0.0W/m²0W/m²0uvi
25.11.2022 03:001.0°C1.1°C1.0°C88.8%1019.6hPa0.0mm1.4km/hWSW4.7km/h0.0W/m²0W/m²0uvi
25.11.2022 03:051.1°C1.1°C1.0°C89.0%1019.6hPa0.0mm1.4km/hWSW4.7km/h0.0W/m²0W/m²0uvi
25.11.2022 03:101.1°C1.2°C1.1°C89.0%1019.6hPa0.0mm2.5km/hW4.7km/h0.0W/m²0W/m²0uvi
25.11.2022 03:151.3°C1.3°C1.2°C89.0%1019.7hPa0.0mm3.2km/hW4.7km/h0.0W/m²0W/m²0uvi
25.11.2022 03:201.4°C1.4°C1.3°C89.0%1019.7hPa0.0mm2.9km/hW4.7km/h0.0W/m²0W/m²0uvi
25.11.2022 03:251.5°C1.5°C1.4°C89.0%1019.7hPa0.0mm2.1km/hW4.7km/h0.0W/m²0W/m²0uvi
25.11.2022 03:301.5°C1.6°C1.4°C88.1%1019.7hPa0.0mm2.9km/hSW4.7km/h0.0W/m²0W/m²0uvi
25.11.2022 03:351.4°C1.5°C1.4°C88.0%1019.6hPa0.0mm1.4km/hSW3.2km/h0.0W/m²0W/m²0uvi
25.11.2022 03:401.4°C1.4°C1.4°C88.0%1019.6hPa0.0mm0.6km/hSW1.4km/h0.0W/m²0W/m²0uvi
25.11.2022 03:451.4°C1.4°C1.4°C88.0%1019.7hPa0.0mm0.6km/hSW1.4km/h0.0W/m²0W/m²0uvi
25.11.2022 03:501.4°C1.4°C1.3°C88.0%1019.7hPa0.0mm0.0km/hSW3.2km/h0.0W/m²0W/m²0uvi
25.11.2022 03:551.3°C1.3°C1.3°C88.0%1019.7hPa0.0mm1.2km/hSW3.2km/h0.0W/m²0W/m²0uvi
25.11.2022 04:001.3°C1.3°C1.3°C88.7%1019.8hPa0.0mm1.4km/hSW3.2km/h0.0W/m²0W/m²0uvi
25.11.2022 04:051.3°C1.3°C1.2°C88.0%1019.8hPa0.0mm1.4km/hSW3.2km/h0.0W/m²0W/m²0uvi
25.11.2022 04:101.3°C1.3°C1.3°C88.7%1019.7hPa0.0mm1.4km/hSW3.2km/h0.0W/m²0W/m²0uvi
25.11.2022 04:151.3°C1.3°C1.3°C89.0%1019.7hPa0.0mm1.4km/hSW3.2km/h0.0W/m²0W/m²0uvi
25.11.2022 04:201.3°C1.4°C1.3°C89.0%1019.7hPa0.0mm1.2km/hSW1.4km/h0.0W/m²0W/m²0uvi
25.11.2022 04:251.4°C1.4°C1.3°C89.0%1019.7hPa0.0mm0.0km/hSSW3.2km/h0.0W/m²0W/m²0uvi
25.11.2022 04:301.5°C1.6°C1.4°C89.0%1019.7hPa0.0mm0.8km/hNNW4.7km/h0.0W/m²0W/m²0uvi
25.11.2022 04:351.5°C1.6°C1.4°C88.4%1019.8hPa0.0mm1.4km/hWSW4.7km/h0.0W/m²0W/m²0uvi
25.11.2022 04:401.3°C1.4°C1.3°C88.2%1019.9hPa0.0mm3.2km/hW4.7km/h0.0W/m²0W/m²0uvi
25.11.2022 04:451.4°C1.5°C1.3°C89.0%1020.0hPa0.0mm1.8km/hW4.7km/h0.0W/m²0W/m²0uvi
25.11.2022 04:501.6°C1.6°C1.5°C88.9%1020.0hPa0.0mm1.4km/hW4.7km/h0.0W/m²0W/m²0uvi
25.11.2022 04:551.5°C1.6°C1.5°C88.0%1020.0hPa0.0mm1.4km/hW3.2km/h0.0W/m²0W/m²0uvi
25.11.2022 05:001.4°C1.5°C1.4°C88.2%1020.0hPa0.0mm1.4km/hW3.2km/h0.0W/m²0W/m²0uvi
25.11.2022 05:051.4°C1.4°C1.4°C88.0%1019.9hPa0.0mm1.4km/hSW1.4km/h0.0W/m²0W/m²0uvi
25.11.2022 05:101.3°C1.4°C1.3°C88.0%1020.0hPa0.0mm0.3km/hSSW3.2km/h0.0W/m²0W/m²0uvi
25.11.2022 05:151.2°C1.3°C1.2°C88.5%1020.0hPa0.0mm1.4km/hSSW3.2km/h0.0W/m²0W/m²0uvi
25.11.2022 05:201.3°C1.3°C1.2°C89.0%1020.0hPa0.0mm1.4km/hNW1.4km/h0.0W/m²0W/m²0uvi
25.11.2022 05:251.3°C1.3°C1.2°C89.0%1020.2hPa0.0mm0.9km/hW3.2km/h0.0W/m²0W/m²0uvi
25.11.2022 05:301.4°C1.4°C1.3°C89.0%1020.2hPa0.0mm1.4km/hW3.2km/h0.0W/m²0W/m²0uvi
25.11.2022 05:351.4°C1.4°C1.4°C89.0%1020.1hPa0.0mm1.4km/hW1.4km/h0.0W/m²0W/m²0uvi
25.11.2022 05:401.4°C1.4°C1.3°C89.0%1020.2hPa0.0mm1.4km/hSW3.2km/h0.0W/m²0W/m²0uvi
25.11.2022 05:451.3°C1.4°C1.3°C89.0%1020.2hPa0.0mm1.4km/hSW3.2km/h0.0W/m²0W/m²0uvi
25.11.2022 05:501.3°C1.3°C1.3°C89.0%1020.2hPa0.0mm1.1km/hSW0.0km/h0.0W/m²0W/m²0uvi
25.11.2022 05:551.3°C1.3°C1.3°C88.7%1020.1hPa0.0mm0.0km/hSW1.4km/h0.0W/m²0W/m²0uvi
25.11.2022 06:001.2°C1.3°C1.2°C88.5%1020.3hPa0.0mm0.0km/hSW1.4km/h0.0W/m²0W/m²0uvi
25.11.2022 06:051.2°C1.2°C1.1°C88.8%1020.3hPa0.0mm0.0km/hSSW3.2km/h0.0W/m²0W/m²0uvi
25.11.2022 06:101.1°C1.1°C1.1°C89.0%1020.3hPa0.0mm0.0km/hNNE1.4km/h0.0W/m²0W/m²0uvi
25.11.2022 06:151.0°C1.1°C1.0°C89.0%1020.4hPa0.0mm0.9km/hW3.2km/h0.0W/m²0W/m²0uvi
25.11.2022 06:201.0°C1.0°C0.9°C89.0%1020.4hPa0.0mm1.4km/hSSW4.7km/h0.0W/m²0W/m²0uvi
25.11.2022 06:250.9°C1.0°C0.9°C89.0%1020.3hPa0.0mm1.4km/hSSW3.2km/h0.0W/m²0W/m²0uvi
25.11.2022 06:300.9°C1.0°C0.9°C89.3%1020.3hPa0.0mm1.4km/hSSW3.2km/h0.0W/m²0W/m²0uvi
25.11.2022 06:351.0°C1.0°C0.9°C90.0%1020.3hPa0.0mm0.3km/hSSW0.0km/h0.0W/m²0W/m²0uvi
25.11.2022 06:401.0°C1.0°C1.0°C90.0%1020.3hPa0.0mm0.0km/hSSW1.4km/h0.0W/m²0W/m²0uvi
25.11.2022 06:451.0°C1.0°C1.0°C89.7%1020.4hPa0.0mm0.0km/hSSW3.2km/h0.0W/m²0W/m²0uvi
25.11.2022 06:501.0°C1.1°C1.0°C89.9%1020.4hPa0.0mm0.0km/hSSW1.4km/h0.0W/m²0W/m²0uvi
25.11.2022 06:551.1°C1.1°C1.0°C90.0%1020.5hPa0.0mm0.0km/hSW3.2km/h0.0W/m²0W/m²0uvi
25.11.2022 07:001.1°C1.2°C1.1°C90.0%1020.6hPa0.0mm0.9km/hSW4.7km/h0.0W/m²0W/m²0uvi
25.11.2022 07:051.2°C1.2°C1.2°C89.8%1020.6hPa0.0mm1.4km/hWSW1.4km/h0.0W/m²0W/m²0uvi
25.11.2022 07:101.2°C1.2°C1.2°C89.0%1020.7hPa0.0mm0.8km/hWSW3.2km/h0.0W/m²0W/m²0uvi
25.11.2022 07:151.2°C1.2°C1.2°C89.0%1020.7hPa0.0mm0.5km/hSE3.2km/h0.0W/m²0W/m²0uvi
25.11.2022 07:201.2°C1.3°C1.2°C89.0%1020.9hPa0.0mm0.7km/hNE3.2km/h0.0W/m²0W/m²0uvi
25.11.2022 07:251.2°C1.2°C1.2°C89.0%1020.9hPa0.0mm0.0km/hNE1.4km/h0.0W/m²0W/m²0uvi
25.11.2022 07:301.2°C1.2°C1.2°C89.0%1020.9hPa0.0mm0.0km/hNE0.0km/h0.0W/m²0W/m²0uvi
25.11.2022 07:351.2°C1.2°C1.2°C89.0%1020.9hPa0.0mm0.0km/hW3.2km/h3.3W/m²5W/m²0uvi
25.11.2022 07:401.3°C1.3°C1.2°C89.0%1020.8hPa0.0mm0.9km/hW3.2km/h7.7W/m²9W/m²0uvi
25.11.2022 07:451.3°C1.3°C1.2°C89.0%1020.9hPa0.0mm1.4km/hSSW3.2km/h10.3W/m²11W/m²0uvi
25.11.2022 07:501.3°C1.4°C1.3°C89.0%1020.9hPa0.0mm1.4km/hS3.2km/h13.3W/m²16W/m²0uvi
25.11.2022 07:551.4°C1.4°C1.3°C89.0%1021.0hPa0.0mm1.4km/hW3.2km/h16.8W/m²18W/m²0uvi
25.11.2022 08:001.4°C1.4°C1.4°C89.0%1021.1hPa0.0mm1.4km/hW4.7km/h20.0W/m²23W/m²0uvi
25.11.2022 08:051.4°C1.4°C1.4°C89.0%1021.1hPa0.0mm1.4km/hW4.7km/h25.6W/m²28W/m²0uvi
25.11.2022 08:101.4°C1.4°C1.4°C89.0%1021.0hPa0.0mm1.4km/hW3.2km/h30.7W/m²32W/m²0uvi
25.11.2022 08:151.4°C1.5°C1.4°C89.0%1021.0hPa0.0mm1.4km/hSW3.2km/h33.0W/m²33W/m²0uvi
25.11.2022 08:201.4°C1.5°C1.4°C89.0%1021.1hPa0.0mm0.0km/hSW1.4km/h36.4W/m²39W/m²0uvi
25.11.2022 08:251.4°C1.5°C1.4°C89.0%1021.1hPa0.0mm0.0km/hWSW3.2km/h41.7W/m²44W/m²0uvi
25.11.2022 08:301.5°C1.6°C1.4°C89.0%1021.1hPa0.0mm0.0km/hWSW1.4km/h44.8W/m²46W/m²0uvi
25.11.2022 08:351.6°C1.6°C1.6°C88.7%1021.1hPa0.0mm0.0km/hWSW3.2km/h43.0W/m²44W/m²0uvi
25.11.2022 08:401.7°C1.7°C1.6°C88.0%1021.1hPa0.0mm0.9km/hWSW1.4km/h42.0W/m²42W/m²0uvi
25.11.2022 08:451.7°C1.7°C1.7°C88.0%1021.1hPa0.0mm0.9km/hWSW1.4km/h39.3W/m²40W/m²0uvi
25.11.2022 08:501.7°C1.7°C1.7°C88.0%1021.1hPa0.0mm0.0km/hWSW1.4km/h31.7W/m²35W/m²0uvi
25.11.2022 08:551.7°C1.7°C1.7°C88.0%1021.1hPa0.0mm0.0km/hWSW3.2km/h28.3W/m²30W/m²0uvi
25.11.2022 09:001.6°C1.7°C1.5°C88.0%1021.1hPa0.0mm1.4km/hSSW4.7km/h26.7W/m²28W/m²0uvi
25.11.2022 09:051.4°C1.5°C1.4°C88.0%1021.2hPa0.0mm3.2km/hS4.7km/h27.2W/m²28W/m²0uvi
25.11.2022 09:101.4°C1.5°C1.4°C89.0%1021.2hPa0.0mm2.3km/hW3.2km/h26.7W/m²28W/m²0uvi
25.11.2022 09:151.5°C1.6°C1.4°C89.0%1021.1hPa0.0mm0.9km/hW1.4km/h24.5W/m²26W/m²0uvi
25.11.2022 09:201.5°C1.6°C1.5°C88.8%1021.1hPa0.0mm0.0km/hW1.4km/h24.3W/m²25W/m²0uvi
25.11.2022 09:251.5°C1.6°C1.4°C88.2%1021.1hPa0.0mm0.0km/hWSW3.2km/h23.7W/m²25W/m²0uvi
25.11.2022 09:301.5°C1.5°C1.4°C88.0%1021.1hPa0.0mm0.0km/hWSW3.2km/h23.0W/m²23W/m²0uvi
25.11.2022 09:351.4°C1.5°C1.4°C88.1%1021.2hPa0.0mm1.4km/hW4.7km/h23.0W/m²23W/m²0uvi
25.11.2022 09:401.4°C1.4°C1.4°C88.8%1021.2hPa0.0mm2.9km/hW4.7km/h23.0W/m²23W/m²0uvi
25.11.2022 09:451.4°C1.4°C1.4°C89.0%1021.3hPa0.0mm3.2km/hW4.7km/h24.5W/m²26W/m²0uvi
25.11.2022 09:501.4°C1.4°C1.4°C89.0%1021.3hPa0.0mm1.9km/hW3.2km/h28.7W/m²32W/m²0uvi
25.11.2022 09:551.4°C1.4°C1.3°C88.2%1021.4hPa0.0mm1.4km/hWSW3.2km/h30.2W/m²33W/m²0uvi
25.11.2022 10:001.3°C1.3°C1.3°C88.8%1021.4hPa0.0mm1.4km/hSW3.2km/h25.2W/m²26W/m²0uvi
25.11.2022 10:051.3°C1.4°C1.3°C88.9%1021.4hPa0.0mm1.4km/hWSW1.4km/h25.0W/m²25W/m²0uvi
25.11.2022 10:101.4°C1.4°C1.4°C89.0%1021.4hPa0.0mm1.4km/hWSW3.2km/h25.0W/m²25W/m²0uvi
25.11.2022 10:151.4°C1.4°C1.4°C89.0%1021.4hPa0.0mm1.4km/hWSW3.2km/h25.0W/m²25W/m²0uvi
25.11.2022 10:201.3°C1.4°C1.3°C88.7%1021.4hPa0.0mm1.4km/hWSW3.2km/h25.3W/m²26W/m²0uvi
25.11.2022 10:251.4°C1.7°C1.3°C89.0%1021.4hPa0.0mm1.4km/hSW1.4km/h126.2W/m²283W/m²0uvi
25.11.2022 10:302.3°C2.8°C1.8°C87.6%1021.4hPa0.0mm0.2km/hSW1.4km/h297.2W/m²304W/m²0uvi
25.11.2022 10:353.2°C3.5°C2.9°C83.7%1021.4hPa0.0mm0.0km/hSE3.2km/h307.2W/m²309W/m²0uvi
25.11.2022 10:403.7°C3.9°C3.5°C80.8%1021.3hPa0.0mm1.1km/hSE4.7km/h314.0W/m²318W/m²0uvi
25.11.2022 10:454.5°C4.9°C4.0°C78.9%1021.3hPa0.0mm1.4km/hSE3.2km/h322.7W/m²327W/m²0uvi
25.11.2022 10:505.2°C5.3°C5.0°C74.9%1021.3hPa0.0mm1.4km/hESE4.7km/h323.0W/m²325W/m²0uvi
25.11.2022 10:555.4°C5.6°C5.3°C72.2%1021.2hPa0.0mm1.4km/hSSW6.5km/h325.7W/m²327W/m²0uvi
25.11.2022 11:005.6°C5.7°C5.6°C70.9%1021.2hPa0.0mm2.8km/hSSW7.9km/h328.3W/m²329W/m²0uvi
25.11.2022 11:055.8°C5.9°C5.7°C70.1%1021.1hPa0.0mm2.5km/hSE1.4km/h330.7W/m²332W/m²0uvi
25.11.2022 11:106.0°C6.1°C5.9°C70.8%1021.1hPa0.0mm1.4km/hSE3.2km/h334.3W/m²336W/m²0uvi
25.11.2022 11:156.1°C6.1°C6.0°C70.4%1021.0hPa0.0mm1.4km/hESE3.2km/h337.2W/m²338W/m²0uvi
25.11.2022 11:206.0°C6.1°C5.9°C69.8%1020.9hPa0.0mm1.4km/hSSE3.2km/h339.1W/m²341W/m²0uvi
25.11.2022 11:256.4°C6.6°C6.2°C68.7%1020.7hPa0.0mm1.4km/hESE4.7km/h341.8W/m²343W/m²0uvi
25.11.2022 11:306.8°C6.9°C6.6°C68.0%1020.6hPa0.0mm1.4km/hESE3.2km/h343.0W/m²343W/m²0uvi
25.11.2022 11:357.0°C7.1°C6.9°C66.3%1020.5hPa0.0mm1.4km/hESE3.2km/h344.8W/m²346W/m²0uvi
25.11.2022 11:407.0°C7.2°C6.9°C66.7%1020.4hPa0.0mm1.4km/hSE3.2km/h345.3W/m²346W/m²0uvi
25.11.2022 11:457.2°C7.3°C7.1°C65.6%1020.4hPa0.0mm1.4km/hSE4.7km/h345.8W/m²346W/m²0uvi
25.11.2022 11:507.4°C7.6°C7.3°C65.1%1020.3hPa0.0mm1.4km/hESE4.7km/h345.8W/m²346W/m²0uvi
25.11.2022 11:557.7°C7.8°C7.6°C63.6%1020.3hPa0.0mm1.4km/hSE3.2km/h346.0W/m²346W/m²0uvi
25.11.2022 12:007.7°C7.8°C7.6°C63.3%1020.2hPa0.0mm1.4km/hSE3.2km/h345.7W/m²346W/m²0uvi
25.11.2022 12:057.8°C7.9°C7.6°C63.8%1020.1hPa0.0mm1.4km/hNNE3.2km/h345.3W/m²346W/m²0uvi
25.11.2022 12:107.8°C8.0°C7.8°C62.0%1020.0hPa0.0mm1.4km/hESE3.2km/h344.7W/m²345W/m²0uvi
25.11.2022 12:158.1°C8.1°C8.1°C60.7%1020.1hPa0.0mm1.4km/hESE3.2km/h343.0W/m²343W/m²0uvi
25.11.2022 12:208.1°C8.2°C8.1°C61.9%1020.0hPa0.0mm0.8km/hESE3.2km/h341.7W/m²343W/m²0uvi
25.11.2022 12:258.2°C8.4°C8.1°C61.4%1020.0hPa0.0mm0.0km/hSSE1.4km/h339.8W/m²341W/m²0uvi
25.11.2022 12:308.5°C8.6°C8.4°C60.2%1019.9hPa0.0mm0.0km/hESE3.2km/h337.7W/m²338W/m²0uvi
25.11.2022 12:358.6°C8.7°C8.4°C59.9%1019.8hPa0.0mm0.0km/hESE1.4km/h335.2W/m²336W/m²0uvi
25.11.2022 12:408.7°C8.8°C8.7°C58.9%1019.8hPa0.0mm0.0km/hNE3.2km/h332.0W/m²334W/m²0uvi
25.11.2022 12:458.8°C8.8°C8.7°C59.9%1019.7hPa0.0mm0.9km/hNNE3.2km/h329.7W/m²330W/m²0uvi
25.11.2022 12:508.8°C8.9°C8.8°C59.7%1019.7hPa0.0mm1.4km/hNE3.2km/h325.7W/m²327W/m²0uvi
25.11.2022 12:558.8°C8.9°C8.8°C58.6%1019.6hPa0.0mm1.4km/hESE3.2km/h322.3W/m²323W/m²0uvi
25.11.2022 13:008.8°C8.9°C8.8°C59.3%1019.6hPa0.0mm1.4km/hESE3.2km/h318.0W/m²320W/m²0uvi
25.11.2022 13:058.7°C8.8°C8.7°C58.7%1019.6hPa0.0mm1.4km/hSE4.7km/h314.1W/m²316W/m²0uvi
25.11.2022 13:108.8°C8.8°C8.7°C58.2%1019.5hPa0.0mm1.8km/hESE4.7km/h309.6W/m²311W/m²0uvi
25.11.2022 13:158.9°C9.1°C8.8°C59.1%1019.4hPa0.0mm1.8km/hNNE4.7km/h304.2W/m²308W/m²0uvi
25.11.2022 13:209.1°C9.2°C9.1°C57.9%1019.4hPa0.0mm1.4km/hN3.2km/h299.5W/m²302W/m²0uvi
25.11.2022 13:259.2°C9.3°C9.2°C58.0%1019.3hPa0.0mm1.4km/hN3.2km/h293.7W/m²297W/m²0uvi
25.11.2022 13:309.3°C9.4°C9.2°C57.7%1019.3hPa0.0mm1.4km/hNNE3.2km/h289.5W/m²294W/m²0uvi
25.11.2022 13:359.4°C9.4°C9.3°C55.5%1019.2hPa0.0mm1.4km/hNE4.7km/h281.7W/m²285W/m²0uvi
25.11.2022 13:409.4°C9.4°C9.3°C57.6%1019.2hPa0.0mm1.4km/hNE3.2km/h275.8W/m²279W/m²0uvi
25.11.2022 13:459.3°C9.4°C9.2°C56.6%1019.2hPa0.0mm1.4km/hNNE6.5km/h269.4W/m²271W/m²0uvi
25.11.2022 13:509.1°C9.2°C9.0°C57.5%1019.1hPa0.0mm1.4km/hESE3.2km/h264.2W/m²267W/m²0uvi
25.11.2022 13:559.2°C9.3°C9.1°C56.1%1019.2hPa0.0mm1.4km/hNNE4.7km/h257.0W/m²262W/m²0uvi
25.11.2022 14:009.3°C9.4°C9.2°C56.2%1019.1hPa0.0mm1.4km/hNE1.4km/h244.7W/m²255W/m²0uvi
25.11.2022 14:059.3°C9.4°C9.3°C55.4%1019.2hPa0.0mm0.4km/hE1.4km/h231.0W/m²243W/m²0uvi
25.11.2022 14:109.3°C9.4°C9.3°C55.8%1019.2hPa0.0mm0.0km/hE1.4km/h199.2W/m²225W/m²0uvi
25.11.2022 14:159.4°C9.4°C9.3°C55.3%1019.2hPa0.0mm0.5km/hNNE4.7km/h209.0W/m²218W/m²0uvi
25.11.2022 14:209.4°C9.4°C9.3°C55.6%1019.2hPa0.0mm1.4km/hNNE3.2km/h182.6W/m²200W/m²0uvi
25.11.2022 14:259.2°C9.3°C9.2°C57.0%1019.2hPa0.0mm1.2km/hESE3.2km/h162.3W/m²167W/m²0uvi
25.11.2022 14:309.1°C9.2°C9.1°C56.8%1019.2hPa0.0mm0.0km/hENE3.2km/h158.5W/m²200W/m²0uvi
25.11.2022 14:359.1°C9.2°C9.0°C57.4%1019.3hPa0.0mm1.1km/hESE4.7km/h190.8W/m²195W/m²0uvi
25.11.2022 14:408.8°C9.0°C8.6°C58.3%1019.2hPa0.0mm1.4km/hSSE4.7km/h173.7W/m²178W/m²0uvi
25.11.2022 14:458.3°C8.6°C8.2°C58.5%1019.2hPa0.0mm1.4km/hESE4.7km/h48.2W/m²128W/m²0uvi
25.11.2022 14:508.0°C8.2°C7.8°C59.2%1019.2hPa0.0mm1.4km/hSE4.7km/h23.0W/m²23W/m²0uvi
25.11.2022 14:557.6°C7.8°C7.3°C60.8%1019.2hPa0.0mm1.4km/hSE3.2km/h22.7W/m²23W/m²0uvi
25.11.2022 15:007.2°C7.3°C7.1°C62.0%1019.2hPa0.0mm1.4km/hSE3.2km/h21.0W/m²21W/m²0uvi
25.11.2022 15:057.0°C7.1°C6.9°C62.8%1019.1hPa0.0mm1.4km/hSE1.4km/h19.3W/m²21W/m²0uvi
25.11.2022 15:106.8°C6.9°C6.8°C64.9%1019.1hPa0.0mm0.9km/hSE1.4km/h19.0W/m²19W/m²0uvi
25.11.2022 15:156.7°C6.8°C6.7°C65.6%1019.1hPa0.0mm1.4km/hESE3.2km/h19.0W/m²19W/m²0uvi
25.11.2022 15:206.6°C6.6°C6.5°C66.3%1019.1hPa0.0mm1.1km/hESE4.7km/h18.3W/m²19W/m²0uvi
25.11.2022 15:256.4°C6.4°C6.3°C67.1%1019.1hPa0.0mm0.5km/hESE1.4km/h18.0W/m²18W/m²0uvi
25.11.2022 15:306.2°C6.3°C6.2°C68.0%1019.1hPa0.0mm1.2km/hESE3.2km/h17.3W/m²18W/m²0uvi
25.11.2022 15:356.1°C6.2°C6.1°C68.0%1019.2hPa0.0mm1.2km/hSSE1.4km/h16.0W/m²16W/m²0uvi
25.11.2022 15:406.1°C6.1°C6.1°C68.0%1019.3hPa0.0mm0.0km/hSE1.4km/h15.7W/m²16W/m²0uvi
25.11.2022 15:456.0°C6.1°C5.9°C68.0%1019.4hPa0.0mm0.0km/hSE3.2km/h14.0W/m²14W/m²0uvi
25.11.2022 15:505.9°C5.9°C5.8°C68.5%1019.5hPa0.0mm0.0km/hSE3.2km/h14.0W/m²14W/m²0uvi
25.11.2022 15:555.8°C5.8°C5.7°C69.0%1019.5hPa0.0mm0.8km/hESE1.4km/h12.0W/m²12W/m²0uvi
25.11.2022 16:005.7°C5.7°C5.6°C69.0%1019.5hPa0.0mm1.2km/hSE4.7km/h11.8W/m²12W/m²0uvi
25.11.2022 16:055.5°C5.6°C5.4°C69.8%1019.5hPa0.0mm1.4km/hS3.2km/h11.0W/m²11W/m²0uvi
25.11.2022 16:105.4°C5.4°C5.4°C70.0%1019.4hPa0.0mm1.4km/hS4.7km/h9.4W/m²11W/m²0uvi
25.11.2022 16:155.4°C5.4°C5.3°C70.0%1019.5hPa0.0mm1.4km/hS3.2km/h8.7W/m²9W/m²0uvi
25.11.2022 16:205.4°C5.4°C5.3°C69.6%1019.6hPa0.0mm1.4km/hSE3.2km/h7.0W/m²7W/m²0uvi
25.11.2022 16:255.4°C5.5°C5.4°C69.0%1019.7hPa0.0mm1.4km/hSSE3.2km/h5.7W/m²7W/m²0uvi
25.11.2022 16:305.4°C5.4°C5.3°C69.7%1019.7hPa0.0mm0.9km/hSSE1.4km/h2.5W/m²5W/m²0uvi
25.11.2022 16:355.3°C5.3°C5.2°C70.0%1019.8hPa0.0mm0.0km/hSSE1.4km/h0.0W/m²0W/m²0uvi
25.11.2022 16:405.1°C5.2°C4.9°C70.7%1019.8hPa0.0mm0.3km/hSSE3.2km/h0.0W/m²0W/m²0uvi
25.11.2022 16:454.8°C4.9°C4.7°C71.0%1020.0hPa0.0mm1.4km/hSSE3.2km/h0.0W/m²0W/m²0uvi
25.11.2022 16:504.7°C4.7°C4.6°C71.8%1020.0hPa0.0mm1.4km/hSSE3.2km/h0.0W/m²0W/m²0uvi
25.11.2022 16:554.6°C4.6°C4.6°C72.0%1020.1hPa0.0mm1.4km/hSE4.7km/h0.0W/m²0W/m²0uvi
25.11.2022 17:004.6°C4.7°C4.6°C71.3%1020.2hPa0.0mm1.4km/hSE3.2km/h0.0W/m²0W/m²0uvi
25.11.2022 17:054.6°C4.6°C4.6°C71.3%1020.3hPa0.0mm1.4km/hS9.7km/h0.0W/m²0W/m²0uvi
25.11.2022 17:104.7°C4.8°C4.6°C71.0%1020.3hPa0.0mm2.5km/hS7.9km/h0.0W/m²0W/m²0uvi
25.11.2022 17:154.8°C4.8°C4.8°C70.8%1020.3hPa0.0mm3.2km/hS7.9km/h0.0W/m²0W/m²0uvi
25.11.2022 17:204.8°C4.8°C4.7°C71.0%1020.4hPa0.0mm1.8km/hS3.2km/h0.0W/m²0W/m²0uvi
25.11.2022 17:254.6°C4.7°C4.5°C71.7%1020.5hPa0.0mm0.9km/hSE3.2km/h0.0W/m²0W/m²0uvi
25.11.2022 17:304.3°C4.4°C4.2°C72.6%1020.5hPa0.0mm1.4km/hS4.7km/h0.0W/m²0W/m²0uvi
25.11.2022 17:354.1°C4.2°C4.0°C73.5%1020.6hPa0.0mm1.4km/hS1.4km/h0.0W/m²0W/m²0uvi
25.11.2022 17:403.9°C4.0°C3.8°C74.5%1020.7hPa0.0mm0.4km/hS1.4km/h0.0W/m²0W/m²0uvi
25.11.2022 17:453.8°C3.8°C3.8°C75.0%1020.8hPa0.0mm0.0km/hS4.7km/h0.0W/m²0W/m²0uvi
25.11.2022 17:503.8°C3.9°C3.8°C74.9%1020.9hPa0.0mm1.1km/hSW6.5km/h0.0W/m²0W/m²0uvi
25.11.2022 17:554.0°C4.0°C3.9°C74.0%1020.9hPa0.0mm2.5km/hSW3.2km/h0.0W/m²0W/m²0uvi
25.11.2022 18:004.0°C4.1°C3.9°C74.0%1021.0hPa0.0mm1.5km/hSW0.0km/h0.0W/m²0W/m²0uvi
25.11.2022 18:053.9°C4.0°C3.8°C74.0%1021.1hPa0.0mm0.0km/hSW1.4km/h0.0W/m²0W/m²0uvi
25.11.2022 18:103.7°C3.8°C3.7°C74.0%1021.1hPa0.0mm0.0km/hSSW1.4km/h0.0W/m²0W/m²0uvi
25.11.2022 18:153.6°C3.7°C3.6°C74.8%1021.1hPa0.0mm0.0km/hSSW0.0km/h0.0W/m²0W/m²0uvi
25.11.2022 18:203.5°C3.6°C3.4°C75.0%1021.1hPa0.0mm0.0km/hSSW4.7km/h0.0W/m²0W/m²0uvi
25.11.2022 18:253.5°C3.6°C3.4°C75.0%1021.1hPa0.0mm1.4km/hSW3.2km/h0.0W/m²0W/m²0uvi
25.11.2022 18:303.4°C3.5°C3.4°C75.3%1021.1hPa0.0mm0.9km/hSW1.4km/h0.0W/m²0W/m²0uvi
25.11.2022 18:353.3°C3.4°C3.2°C76.2%1021.1hPa0.0mm0.0km/hSW3.2km/h0.0W/m²0W/m²0uvi
25.11.2022 18:403.2°C3.3°C3.1°C77.2%1021.1hPa0.0mm1.1km/hSW3.2km/h0.0W/m²0W/m²0uvi
25.11.2022 18:453.0°C3.1°C2.9°C78.0%1021.1hPa0.0mm0.3km/hSW3.2km/h0.0W/m²0W/m²0uvi
25.11.2022 18:502.9°C2.9°C2.8°C79.0%1021.1hPa0.0mm0.0km/hSW3.2km/h0.0W/m²0W/m²0uvi
25.11.2022 18:552.8°C2.8°C2.8°C79.0%1021.1hPa0.0mm0.0km/hSW1.4km/h0.0W/m²0W/m²0uvi
25.11.2022 19:002.8°C2.9°C2.8°C79.0%1021.1hPa0.0mm0.5km/hS4.7km/h0.0W/m²0W/m²0uvi
25.11.2022 19:053.1°C3.2°C3.0°C78.3%1021.1hPa0.0mm1.4km/hSSW4.7km/h0.0W/m²0W/m²0uvi
25.11.2022 19:103.2°C3.3°C3.2°C77.2%1021.1hPa0.0mm1.4km/hSSW1.4km/h0.0W/m²0W/m²0uvi
25.11.2022 19:153.1°C3.2°C2.9°C78.0%1021.2hPa0.0mm1.4km/hSSW4.7km/h0.0W/m²0W/m²0uvi
25.11.2022 19:202.7°C2.9°C2.6°C78.6%1021.2hPa0.0mm1.4km/hSSW3.2km/h0.0W/m²0W/m²0uvi
25.11.2022 19:252.5°C2.6°C2.4°C80.2%1021.3hPa0.0mm1.4km/hSSW3.2km/h0.0W/m²0W/m²0uvi
25.11.2022 19:302.4°C2.5°C2.4°C81.0%1021.4hPa0.0mm1.4km/hWSW3.2km/h0.0W/m²0W/m²0uvi
25.11.2022 19:352.4°C2.4°C2.3°C81.0%1021.4hPa0.0mm2.1km/hW4.7km/h0.0W/m²0W/m²0uvi
25.11.2022 19:402.2°C2.3°C2.1°C81.1%1021.5hPa0.0mm2.8km/hWSW4.7km/h0.0W/m²0W/m²0uvi
25.11.2022 19:452.0°C2.1°C1.9°C81.9%1021.5hPa0.0mm1.8km/hSW3.2km/h0.0W/m²0W/m²0uvi
25.11.2022 19:501.8°C1.9°C1.8°C82.4%1021.5hPa0.0mm1.4km/hSW3.2km/h0.0W/m²0W/m²0uvi
25.11.2022 19:551.7°C1.8°C1.6°C83.0%1021.4hPa0.0mm1.4km/hSSW3.2km/h0.0W/m²0W/m²0uvi
25.11.2022 20:001.6°C1.6°C1.5°C83.0%1021.4hPa0.0mm1.4km/hSSW4.7km/h0.0W/m²0W/m²0uvi
25.11.2022 20:051.5°C1.6°C1.4°C84.0%1021.4hPa0.0mm1.4km/hSSW3.2km/h0.0W/m²0W/m²0uvi
25.11.2022 20:101.4°C1.5°C1.4°C84.0%1021.5hPa0.0mm1.4km/hSSW3.2km/h0.0W/m²0W/m²0uvi
25.11.2022 20:151.4°C1.4°C1.4°C84.0%1021.6hPa0.0mm1.4km/hSSW3.2km/h0.0W/m²0W/m²0uvi
25.11.2022 20:201.5°C1.6°C1.4°C84.6%1021.7hPa0.0mm1.4km/hSSW3.2km/h0.0W/m²0W/m²0uvi
25.11.2022 20:251.6°C1.6°C1.6°C84.4%1021.8hPa0.0mm1.4km/hSSW3.2km/h0.0W/m²0W/m²0uvi
25.11.2022 20:301.6°C1.6°C1.6°C84.0%1021.9hPa0.0mm1.4km/hSSW3.2km/h0.0W/m²0W/m²0uvi
25.11.2022 20:351.6°C1.6°C1.6°C84.0%1021.9hPa0.0mm1.4km/hWSW4.7km/h0.0W/m²0W/m²0uvi
25.11.2022 20:401.5°C1.6°C1.4°C84.0%1022.0hPa0.0mm1.4km/hWSW6.5km/h0.0W/m²0W/m²0uvi
25.11.2022 20:451.3°C1.3°C1.2°C84.1%1022.1hPa0.0mm2.9km/hWSW4.7km/h0.0W/m²0W/m²0uvi
25.11.2022 20:501.1°C1.2°C1.1°C84.9%1022.4hPa0.0mm1.8km/hW1.4km/h0.0W/m²0W/m²0uvi
25.11.2022 20:551.1°C1.2°C1.1°C85.0%1022.6hPa0.0mm1.4km/hSW4.7km/h0.0W/m²0W/m²0uvi
25.11.2022 21:001.1°C1.1°C1.0°C85.0%1022.7hPa0.0mm1.4km/hSSW4.7km/h0.0W/m²0W/m²0uvi
25.11.2022 21:051.1°C1.2°C1.1°C85.7%1022.8hPa0.0mm3.2km/hSSW4.7km/h0.0W/m²0W/m²0uvi
25.11.2022 21:101.3°C1.4°C1.2°C85.8%1022.9hPa0.0mm1.8km/hSW3.2km/h0.0W/m²0W/m²0uvi
25.11.2022 21:151.4°C1.4°C1.4°C85.0%1023.0hPa0.0mm0.5km/hWSW1.4km/h0.0W/m²0W/m²0uvi
25.11.2022 21:201.4°C1.5°C1.4°C85.0%1022.9hPa0.0mm0.0km/hWSW1.4km/h0.0W/m²0W/m²0uvi
25.11.2022 21:251.6°C1.6°C1.5°C84.8%1022.9hPa0.0mm0.0km/hWSW1.4km/h0.0W/m²0W/m²0uvi
25.11.2022 21:301.5°C1.6°C1.4°C84.0%1022.9hPa0.0mm0.0km/hWSW1.4km/h0.0W/m²0W/m²0uvi
25.11.2022 21:351.3°C1.5°C1.2°C83.9%1022.9hPa0.0mm0.0km/hWSW3.2km/h0.0W/m²0W/m²0uvi
25.11.2022 21:401.2°C1.3°C1.2°C84.0%1023.0hPa0.0mm1.4km/hSW3.2km/h0.0W/m²0W/m²0uvi
25.11.2022 21:451.2°C1.2°C1.1°C84.9%1022.9hPa0.0mm1.4km/hSW4.7km/h0.0W/m²0W/m²0uvi
25.11.2022 21:501.3°C1.3°C1.2°C85.0%1023.0hPa0.0mm0.9km/hSSW1.4km/h0.0W/m²0W/m²0uvi
25.11.2022 21:551.4°C1.5°C1.3°C84.8%1023.0hPa0.0mm0.5km/hWSW3.2km/h0.0W/m²0W/m²0uvi
25.11.2022 22:001.5°C1.6°C1.4°C84.0%1023.0hPa0.0mm1.4km/hW4.7km/h0.0W/m²0W/m²0uvi
25.11.2022 22:051.2°C1.4°C1.1°C83.5%1023.1hPa0.0mm1.7km/hWSW4.7km/h0.0W/m²0W/m²0uvi
25.11.2022 22:101.0°C1.1°C1.0°C84.8%1023.1hPa0.0mm3.2km/hSW4.7km/h0.0W/m²0W/m²0uvi
25.11.2022 22:151.1°C1.2°C1.1°C86.0%1023.1hPa0.0mm1.9km/hSSW4.7km/h0.0W/m²0W/m²0uvi
25.11.2022 22:201.2°C1.3°C1.2°C85.6%1023.2hPa0.0mm1.4km/hWSW4.7km/h0.0W/m²0W/m²0uvi
25.11.2022 22:251.1°C1.2°C0.9°C85.0%1023.2hPa0.0mm1.4km/hWSW4.7km/h0.0W/m²0W/m²0uvi
25.11.2022 22:300.8°C0.9°C0.7°C85.0%1023.2hPa0.0mm3.2km/hW4.7km/h0.0W/m²0W/m²0uvi
25.11.2022 22:350.7°C0.8°C0.7°C86.3%1023.3hPa0.0mm2.9km/hW4.7km/h0.0W/m²0W/m²0uvi
25.11.2022 22:400.8°C0.9°C0.8°C86.7%1023.3hPa0.0mm1.4km/hWSW4.7km/h0.0W/m²0W/m²0uvi
25.11.2022 22:450.9°C0.9°C0.8°C86.8%1023.4hPa0.0mm1.4km/hWSW3.2km/h0.0W/m²0W/m²0uvi
25.11.2022 22:500.9°C1.0°C0.9°C86.0%1023.4hPa0.0mm1.4km/hSW6.5km/h0.0W/m²0W/m²0uvi
25.11.2022 22:550.9°C0.9°C0.9°C86.0%1023.5hPa0.0mm1.4km/hSW3.2km/h0.0W/m²0W/m²0uvi
25.11.2022 23:000.9°C1.0°C0.9°C86.0%1023.5hPa0.0mm1.4km/hWSW3.2km/h0.0W/m²0W/m²0uvi
25.11.2022 23:051.0°C1.1°C0.9°C86.3%1023.5hPa0.0mm0.8km/hWSW4.7km/h0.0W/m²0W/m²0uvi
25.11.2022 23:101.2°C1.3°C1.1°C86.2%1023.5hPa0.0mm1.4km/hW4.7km/h0.0W/m²0W/m²0uvi
25.11.2022 23:151.2°C1.3°C1.2°C86.0%1023.5hPa0.0mm2.8km/hWSW4.7km/h0.0W/m²0W/m²0uvi
25.11.2022 23:201.2°C1.2°C1.2°C86.0%1023.5hPa0.0mm1.8km/hWSW3.2km/h0.0W/m²0W/m²0uvi
25.11.2022 23:251.3°C1.3°C1.2°C86.0%1023.5hPa0.0mm1.4km/hW4.7km/h0.0W/m²0W/m²0uvi
25.11.2022 23:301.2°C1.3°C1.2°C85.1%1023.5hPa0.0mm1.4km/hSSW4.7km/h0.0W/m²0W/m²0uvi
25.11.2022 23:351.0°C1.1°C0.9°C85.1%1023.6hPa0.0mm1.4km/hSW4.7km/h0.0W/m²0W/m²0uvi
25.11.2022 23:400.9°C0.9°C0.9°C86.0%1023.7hPa0.0mm1.4km/hW3.2km/h0.0W/m²0W/m²0uvi
25.11.2022 23:450.9°C0.9°C0.9°C86.7%1023.7hPa0.0mm1.2km/hW1.4km/h0.0W/m²0W/m²0uvi
25.11.2022 23:500.9°C1.0°C0.9°C87.0%1023.6hPa0.0mm1.2km/hW3.2km/h0.0W/m²0W/m²0uvi
25.11.2022 23:551.1°C1.1°C1.0°C87.0%1023.6hPa0.0mm1.4km/hWSW3.2km/h0.0W/m²0W/m²0uvi
26.11.2022 00:001.1°C1.2°C1.1°C87.0%1023.6hPa0.0mm1.4km/hWSW4.7km/h0.0W/m²0W/m²0uvi
26.11.2022 00:051.2°C1.3°C1.2°C86.9%1023.6hPa0.0mm2.5km/hW4.7km/h0.0W/m²0W/m²0uvi
26.11.2022 00:101.5°C1.6°C1.3°C87.0%1023.5hPa0.0mm3.2km/hW4.7km/h0.0W/m²0W/m²0uvi
26.11.2022 00:151.7°C1.8°C1.6°C86.1%1023.6hPa0.0mm3.2km/hW4.7km/h0.0W/m²0W/m²0uvi
26.11.2022 00:201.7°C1.8°C1.6°C85.2%1023.6hPa0.0mm3.2km/hWSW6.5km/h0.0W/m²0W/m²0uvi
26.11.2022 00:251.4°C1.6°C1.3°C85.0%1023.8hPa0.0mm3.2km/hW4.7km/h0.0W/m²0W/m²0uvi
26.11.2022 00:301.2°C1.3°C1.2°C85.4%1023.8hPa0.0mm2.5km/hWSW3.2km/h0.0W/m²0W/m²0uvi
26.11.2022 00:351.1°C1.2°C1.1°C86.0%1023.8hPa0.0mm1.2km/hWSW1.4km/h0.0W/m²0W/m²0uvi
26.11.2022 00:401.1°C1.1°C1.1°C86.2%1023.8hPa0.0mm0.0km/hWSW3.2km/h0.0W/m²0W/m²0uvi
26.11.2022 00:451.1°C1.2°C1.1°C86.9%1023.8hPa0.0mm0.5km/hWSW3.2km/h0.0W/m²0W/m²0uvi
26.11.2022 00:501.2°C1.3°C1.2°C87.0%1023.7hPa0.0mm1.4km/hWSW4.7km/h0.0W/m²0W/m²0uvi
26.11.2022 00:551.2°C1.3°C1.2°C87.0%1023.8hPa0.0mm2.5km/hW6.5km/h0.0W/m²0W/m²0uvi
26.11.2022 01:001.2°C1.2°C1.2°C87.0%1023.8hPa0.0mm3.2km/hW7.9km/h0.0W/m²0W/m²0uvi
26.11.2022 01:051.2°C1.3°C1.2°C87.0%1023.9hPa0.0mm3.2km/hW6.5km/h0.0W/m²0W/m²0uvi
26.11.2022 01:101.4°C1.6°C1.3°C87.6%1023.8hPa0.0mm3.2km/hW6.5km/h0.0W/m²0W/m²0uvi
26.11.2022 01:151.7°C1.7°C1.6°C87.1%1023.9hPa0.0mm2.9km/hWSW3.2km/h0.0W/m²0W/m²0uvi
26.11.2022 01:201.7°C1.8°C1.7°C87.0%1023.9hPa0.0mm1.2km/hWSW1.4km/h0.0W/m²0W/m²0uvi
26.11.2022 01:251.8°C1.8°C1.7°C87.0%1023.8hPa0.0mm0.0km/hWSW3.2km/h0.0W/m²0W/m²0uvi
26.11.2022 01:301.7°C1.8°C1.7°C86.8%1023.8hPa0.0mm0.0km/hWSW3.2km/h0.0W/m²0W/m²0uvi
26.11.2022 01:351.7°C1.7°C1.7°C86.0%1023.9hPa0.0mm1.4km/hSSW1.4km/h0.0W/m²0W/m²0uvi
26.11.2022 01:401.6°C1.7°C1.6°C86.1%1023.9hPa0.0mm0.0km/hSSW1.4km/h0.0W/m²0W/m²0uvi
26.11.2022 01:451.6°C1.6°C1.5°C87.0%1023.9hPa0.0mm0.0km/hSW1.4km/h0.0W/m²0W/m²0uvi
26.11.2022 01:501.5°C1.6°C1.5°C87.0%1023.9hPa0.0mm0.0km/hSW3.2km/h0.0W/m²0W/m²0uvi
26.11.2022 01:551.4°C1.5°C1.4°C87.0%1023.9hPa0.0mm1.4km/hSW4.7km/h0.0W/m²0W/m²0uvi
26.11.2022 02:001.3°C1.4°C1.3°C87.0%1023.9hPa0.0mm1.4km/hW4.7km/h0.0W/m²0W/m²0uvi
26.11.2022 02:051.3°C1.3°C1.2°C87.0%1023.9hPa0.0mm1.4km/hSSW4.7km/h0.0W/m²0W/m²0uvi
26.11.2022 02:101.1°C1.2°C1.1°C87.0%1023.9hPa0.0mm1.4km/hSW3.2km/h0.0W/m²0W/m²0uvi
26.11.2022 02:151.1°C1.1°C1.1°C87.3%1024.0hPa0.0mm1.2km/hSW1.4km/h0.0W/m²0W/m²0uvi
26.11.2022 02:201.1°C1.1°C1.1°C88.0%1023.9hPa0.0mm0.8km/hSW1.4km/h0.0W/m²0W/m²0uvi
26.11.2022 02:251.2°C1.2°C1.1°C88.0%1023.9hPa0.0mm1.1km/hSW3.2km/h0.0W/m²0W/m²0uvi
26.11.2022 02:301.2°C1.2°C1.2°C88.0%1023.9hPa0.0mm1.4km/hSW3.2km/h0.0W/m²0W/m²0uvi
26.11.2022 02:351.2°C1.2°C1.2°C88.0%1023.9hPa0.0mm1.4km/hSW3.2km/h0.0W/m²0W/m²0uvi
26.11.2022 02:401.1°C1.2°C1.1°C88.0%1023.9hPa0.0mm1.2km/hSW3.2km/h0.0W/m²0W/m²0uvi
26.11.2022 02:451.1°C1.1°C1.0°C88.0%1023.9hPa0.0mm0.0km/hSW3.2km/h0.0W/m²0W/m²0uvi
26.11.2022 02:501.1°C1.1°C1.0°C88.0%1023.9hPa0.0mm0.0km/hSW3.2km/h0.0W/m²0W/m²0uvi
26.11.2022 02:551.1°C1.1°C1.0°C88.0%1024.0hPa0.0mm0.0km/hSW3.2km/h0.0W/m²0W/m²0uvi
26.11.2022 03:001.0°C1.1°C0.9°C